• Join FlightAware (Why Join?)
  • Login
  • US Flag 
05:05AM EST


 

Airport Tracker/Info


-or-


 

Live Flight TrackerFlight Track Log ✈ SWA2874 ✈ 30-Apr-2013 ✈ KGSP - KBWI

Flight Track Log - Related Links

Times and Time Zones

All times are in EDT time to prevent confusion due to time zone crossing. See the SWA2874 flight status page for this flight to view local times or setup timezone preferences in your user account.

Time Position Orientation Groundspeed Altitude Reporting Facility
EDT Latitude Longitude Course Direction KTS MPH feet Rate Location/Type
07:25PM 34.8097 -82.2300 166° South 190 219 6,600  Level Atlanta Center
07:26PM 34.8253 -82.1411 78° East 148 170 11,100 3,840 Climbing Atlanta Center
07:27PM 34.8319 -82.0372 86° East 227 261 14,300 3,360 Climbing Atlanta Center
07:28PM 34.8508 -81.9203 79° East 297 342 17,900 3,540 Climbing Atlanta Center
07:29PM 34.8925 -81.8078 66° East 331 381 21,400 3,120 Climbing Atlanta Center
07:30PM 34.9617 -81.7044 51° Northeast 382 440 24,200 2,880 Climbing Atlanta Center
07:31PM 35.0325 -81.5986 51° Northeast 395 455 27,200 2,640 Climbing Atlanta Center
07:32PM 35.1033 -81.4847 53° Northeast 407 468 29,500 1,980 Climbing Atlanta Center
07:34PM 35.2567 -81.2408 52° Northeast 444 511 33,200 1,920 Climbing Atlanta Center
07:35PM 35.3331 -81.1161 53° Northeast 459 528 35,300 1,800 Climbing Atlanta Center
07:36PM 35.4156 -80.9908 51° Northeast 464 534 36,900 1,500 Climbing Atlanta Center
07:37PM 35.4956 -80.8606 53° Northeast 471 542 38,400 1,560 Climbing Atlanta Center
07:38PM 35.5758 -80.7347 52° Northeast 471 542 40,100 1,260 Climbing Atlanta Center
07:39PM 35.6536 -80.6064 53° Northeast 471 542 41,000 420 Climbing Atlanta Center
07:40PM 35.7314 -80.4856 52° Northeast 466 536 41,000  Level Atlanta Center
07:41PM 35.8092 -80.3567 53° Northeast 466 536 41,000  Level Atlanta Center
07:43PM 35.9425 -80.1383 53° Northeast 469 540 41,000  Level Washington Center
07:44PM 36.0197 -80.0219 51° Northeast 450 518 41,000  Level Washington Center
07:45PM 36.0933 -79.8950 54° Northeast 456 525 41,000  Level Washington Center
07:46PM 36.1689 -79.7681 54° Northeast 456 525 41,000  Level Washington Center
07:47PM 36.2381 -79.6353 57° Northeast 456 525 41,000 -240 Level Washington Center
07:48PM 36.3022 -79.5250 54° Northeast 451 519 40,600 -780 Descending Washington Center
07:49PM 36.3839 -79.3847 54° Northeast 451 519 39,500 -1,080 Descending Washington Center
07:50PM 36.4528 -79.2511 57° Northeast 458 527 38,500 -1,320 Descending Washington Center
07:51PM 36.5317 -79.1256 52° Northeast 458 527 37,000 -2,460 Descending Washington Center
07:52PM 36.6022 -78.9917 57° Northeast 453 521 33,700 -2,700 Descending Washington Center
07:53PM 36.6708 -78.8575 57° Northeast 459 528 31,600 -2,400 Descending Washington Center
07:54PM 36.7364 -78.7436 54° Northeast 454 522 29,000 -1,380 Descending Washington Center
07:55PM 36.8086 -78.6117 56° Northeast 454 522 29,000 -300 Level Washington Center
07:56PM 36.8894 -78.4642 56° Northeast 454 522 28,400 -660 Descending Washington Center
07:57PM 36.9658 -78.3239 56° Northeast 460 529 27,700 -720 Descending Washington Center
07:58PM 37.0375 -78.1939 55° Northeast 460 529 27,000 -360 Descending Washington Center
07:59PM 37.0983 -78.0761 57° Northeast 455 524 27,000  Level Washington Center
08:00PM 37.1678 -77.9481 56° Northeast 450 518 27,000 -60 Level Washington Center
08:01PM 37.2411 -77.8172 55° Northeast 450 518 26,900 -600 Descending Washington Center
08:02PM 37.3408 -77.7339 34° Northeast 435 501 25,900 -1,080 Descending Washington Center
08:03PM 37.4522 -77.6717 24° Northeast 426 490 24,800 -1,080 Descending Washington Center
08:04PM 37.5597 -77.6092 25° Northeast 426 490 23,800 -960 Descending Washington Center
08:05PM 37.6650 -77.5489 24° Northeast 416 479 23,000 -600 Descending Washington Center
08:06PM 37.7789 -77.4836 24° Northeast 416 479 22,600 -720 Descending Washington Center
08:07PM 37.8756 -77.4306 23° Northeast 411 473 21,600 -1,080 Descending Washington Center
08:08PM 37.9786 -77.3700 25° Northeast 406 467 20,500 -1,080 Descending Washington Center
08:09PM 38.0881 -77.3092 24° Northeast 400 460 19,500 -1,020 Descending Washington Center
08:10PM 38.1889 -77.2508 24° Northeast 395 455 18,500 -900 Descending Washington Center
08:11PM 38.2856 -77.1947 24° Northeast 389 448 17,800 -1,680 Descending Washington Center
08:12PM 38.3822 -77.1358 26° Northeast 376 433 15,200 -1,800 Descending Washington Center
08:13PM 38.4564 -77.0472 43° Northeast 371 427 14,200 -1,620 Descending Washington Center
08:14PM 38.5303 -76.9586 43° Northeast 359 413 12,000 -1,680 Descending Washington Center
08:15PM 38.6000 -76.8747 43° Northeast 347 399 10,900 -1,020 Descending Washington Center
08:16PM 38.6614 -76.7961 45° Northeast 329 379 10,100 -1,020 Descending Washington Center
08:17PM 38.7142 -76.7250 46° Northeast 294 338 9,000 -1,200 Descending Washington Center
08:18PM 38.7503 -76.6406 61° Northeast 268 308 7,700 -1,200 Descending Washington Center
08:19PM 38.8000 -76.5333 59° Northeast 268 308 6,400 -1,140 Descending Potomac TRACON
08:20PM 38.8667 -76.5500 349° North 279 321 5,200 -1,080 Descending Potomac TRACON
08:21PM 38.9500 -76.5833 343° North 273 314 4,200 -600 Descending Potomac TRACON
08:22PM 39.0000 -76.6500 314° West 277 319 4,000 -120 Descending Potomac TRACON
08:23PM 39.0333 -76.7333 297° West 281 323 4,000  Level Potomac TRACON
08:24PM 39.0667 -76.8333 293° West 253 291 4,000 -420 Level Potomac TRACON
08:25PM 39.1000 -76.8833 311° West 238 274 3,200 -960 Descending Potomac TRACON
08:26PM 39.1667 -76.8833 360° North 201 231 2,200 -600 Descending Potomac TRACON
08:27PM 39.1833 -76.8167 72° East 177 204 2,000 -420 Descending Potomac TRACON
08:28PM 39.1833 -76.7667 90° East 137 158 1,400 -600 Descending Potomac TRACON
08:29PM 39.1833 -76.7333 90° East 119 137 800 -600 Descending Potomac TRACON
08:31PM 39.1667 -76.6667 339° North  Level FlightAware Approximate
08:38PM 39.1754 -76.6683 339° North  Level Estimated